Time,TemperatureF,DewpointF,PressureIn,WindDirection,WindDirectionDegrees,WindSpeedMPH,WindSpeedGustMPH,Humidity,HourlyPrecipIn,Conditions,Clouds,dailyrainin,SoftwareType,DateUTC
2013-09-19 00:14:00,63.1,61.0,32.31,SW,220,0.0,0.0,94,0.00,,,0.00,weatherlink.com 1.10,2013-09-19 02:14:00,
2013-09-19 00:30:00,62.8,61.0,32.31,SW,220,0.0,0.0,94,0.00,,,0.00,weatherlink.com 1.10,2013-09-19 02:30:00,
2013-09-19 00:46:00,63.1,61.0,32.31,SW,219,0.0,0.0,94,0.00,,,0.00,weatherlink.com 1.10,2013-09-19 02:46:00,
2013-09-19 01:02:00,63.2,61.0,32.31,SW,220,0.0,0.0,94,0.00,,,0.00,weatherlink.com 1.10,2013-09-19 03:02:00,
2013-09-19 01:19:00,63.1,62.0,32.31,SW,219,0.0,0.0,95,0.00,,,0.00,weatherlink.com 1.10,2013-09-19 03:19:00,
2013-09-19 01:35:00,62.9,61.0,32.31,SW,220,0.0,0.0,95,0.00,,,0.00,weatherlink.com 1.10,2013-09-19 03:35:00,
2013-09-19 01:50:00,62.8,61.0,32.31,SW,220,0.0,0.0,95,0.00,,,0.00,weatherlink.com 1.10,2013-09-19 03:50:00,
2013-09-19 02:06:00,63.0,62.0,32.31,SW,219,0.0,0.0,95,0.00,,,0.00,weatherlink.com 1.10,2013-09-19 04:06:00,
2013-09-19 02:23:00,63.1,62.0,32.31,SW,220,0.0,0.0,95,0.00,,,0.00,weatherlink.com 1.10,2013-09-19 04:23:00,
2013-09-19 02:38:00,62.9,62.0,32.31,SW,219,0.0,0.0,96,0.00,,,0.00,weatherlink.com 1.10,2013-09-19 04:38:00,
2013-09-19 02:54:00,62.9,62.0,0.00,SW,220,0.0,0.0,96,0.00,,,0.00,weatherlink.com 1.10,2013-09-19 04:54:00,
2013-09-19 03:10:00,62.7,62.0,0.00,SW,219,0.0,0.0,96,0.00,,,0.00,weatherlink.com 1.10,2013-09-19 05:10:00,
2013-09-19 03:26:00,62.7,62.0,0.00,SW,220,0.0,0.0,96,0.00,,,0.00,weatherlink.com 1.10,2013-09-19 05:26:00,
2013-09-19 03:42:00,62.7,62.0,0.00,SW,219,0.0,0.0,96,0.00,,,0.00,weatherlink.com 1.10,2013-09-19 05:42:00,
2013-09-19 03:58:00,62.7,62.0,0.00,SW,220,0.0,1.0,96,0.00,,,0.00,weatherlink.com 1.10,2013-09-19 05:58:00,
2013-09-19 04:14:00,62.9,62.0,0.00,SW,220,0.0,0.0,96,0.00,,,0.00,weatherlink.com 1.10,2013-09-19 06:14:00,
2013-09-19 04:30:00,62.9,62.0,0.00,SW,220,0.0,0.0,96,0.00,,,0.00,weatherlink.com 1.10,2013-09-19 06:30:00,
2013-09-19 04:46:00,62.8,62.0,0.00,SW,220,0.0,0.0,96,0.00,,,0.00,weatherlink.com 1.10,2013-09-19 06:46:00,
2013-09-19 05:02:00,62.7,62.0,0.00,SW,220,0.0,0.0,97,0.00,,,0.00,weatherlink.com 1.10,2013-09-19 07:02:00,
2013-09-19 05:18:00,62.6,62.0,0.00,SW,220,0.0,0.0,97,0.00,,,0.00,weatherlink.com 1.10,2013-09-19 07:18:00,
2013-09-19 05:34:00,62.6,62.0,0.00,SW,220,0.0,0.0,97,0.00,,,0.00,weatherlink.com 1.10,2013-09-19 07:34:00,
2013-09-19 05:50:00,62.5,62.0,0.00,SW,220,0.0,0.0,97,0.00,,,0.00,weatherlink.com 1.10,2013-09-19 07:50:00,
2013-09-19 06:06:00,62.5,62.0,0.00,SW,220,0.0,0.0,97,0.00,,,0.00,weatherlink.com 1.10,2013-09-19 08:06:00,
2013-09-19 06:22:00,62.7,62.0,0.00,SW,219,0.0,0.0,97,0.00,,,0.00,weatherlink.com 1.10,2013-09-19 08:22:00,
2013-09-19 06:38:00,62.7,62.0,21.62,SW,219,0.0,0.0,97,0.00,,,0.00,weatherlink.com 1.10,2013-09-19 08:38:00,
2013-09-19 06:54:00,62.7,62.0,21.62,SW,219,0.0,0.0,97,0.00,,,0.00,weatherlink.com 1.10,2013-09-19 08:54:00,
2013-09-19 07:10:00,62.7,62.0,21.62,SW,220,0.0,0.0,97,0.00,,,0.00,weatherlink.com 1.10,2013-09-19 09:10:00,
2013-09-19 07:26:00,62.6,62.0,21.62,SW,219,0.0,0.0,97,0.00,,,0.00,weatherlink.com 1.10,2013-09-19 09:26:00,
2013-09-19 07:42:00,62.3,61.0,32.18,SW,220,0.0,0.0,97,0.00,,,0.00,weatherlink.com 1.10,2013-09-19 09:42:00,
2013-09-19 07:58:00,62.2,61.0,32.18,SW,219,0.0,0.0,97,0.00,,,0.00,weatherlink.com 1.10,2013-09-19 09:58:00,
2013-09-19 08:14:00,62.2,61.0,32.18,SW,220,0.0,0.0,97,0.00,,,0.00,weatherlink.com 1.10,2013-09-19 10:14:00,
2013-09-19 08:30:00,62.3,62.0,32.18,SW,220,0.0,0.0,98,0.00,,,0.00,weatherlink.com 1.10,2013-09-19 10:30:00,
2013-09-19 08:46:00,62.1,62.0,32.18,SW,220,0.0,0.0,98,0.00,,,0.00,weatherlink.com 1.10,2013-09-19 10:46:00,
2013-09-19 09:02:00,61.9,61.0,32.18,SW,220,0.0,0.0,98,0.00,,,0.00,weatherlink.com 1.10,2013-09-19 11:02:00,
2013-09-19 09:18:00,61.9,61.0,32.18,SW,220,0.0,0.0,98,0.00,,,0.00,weatherlink.com 1.10,2013-09-19 11:18:00,
2013-09-19 09:34:00,61.9,61.0,32.18,SW,220,0.0,0.0,97,0.00,,,0.00,weatherlink.com 1.10,2013-09-19 11:34:00,
2013-09-19 09:50:00,62.2,61.0,32.18,SW,220,0.0,0.0,97,0.00,,,0.00,weatherlink.com 1.10,2013-09-19 11:50:00,
2013-09-19 10:06:00,62.3,61.0,32.18,NNW,336,0.0,0.0,97,0.00,,,0.00,weatherlink.com 1.10,2013-09-19 12:06:00,
2013-09-19 10:22:00,62.6,61.0,32.18,South,183,0.0,0.0,96,0.00,,,0.00,weatherlink.com 1.10,2013-09-19 12:22:00,
2013-09-19 10:38:00,63.2,61.0,32.18,South,183,0.0,0.0,94,0.00,,,0.00,weatherlink.com 1.10,2013-09-19 12:38:00,
2013-09-19 10:54:00,64.2,62.0,32.18,East,88,0.0,1.0,92,0.00,,,0.00,weatherlink.com 1.10,2013-09-19 12:54:00,
2013-09-19 11:09:00,65.4,62.0,32.18,South,173,0.0,1.0,89,0.00,,,0.00,weatherlink.com 1.10,2013-09-19 13:09:00,
2013-09-19 11:26:00,65.8,61.0,32.18,South,187,0.0,1.0,86,0.00,,,0.00,weatherlink.com 1.10,2013-09-19 13:26:00,
2013-09-19 11:42:00,66.2,62.0,32.18,South,187,1.0,3.0,86,0.00,,,0.00,weatherlink.com 1.10,2013-09-19 13:42:00,
2013-09-19 11:57:00,65.7,61.0,32.18,South,187,0.0,3.0,86,0.00,,,0.00,weatherlink.com 1.10,2013-09-19 13:57:00,
2013-09-19 12:13:00,66.2,62.0,32.18,South,187,0.0,1.0,85,0.00,,,0.00,weatherlink.com 1.10,2013-09-19 14:13:00,
2013-09-19 12:30:00,66.5,62.0,32.18,SSW,206,0.0,3.0,84,0.00,,,0.00,weatherlink.com 1.10,2013-09-19 14:30:00,
2013-09-19 12:45:00,66.9,62.0,32.18,SSW,205,0.0,1.0,84,0.00,,,0.00,weatherlink.com 1.10,2013-09-19 14:45:00,
2013-09-19 13:01:00,67.0,62.0,32.18,SSW,209,2.0,3.0,83,0.00,,,0.00,weatherlink.com 1.10,2013-09-19 15:01:00,
2013-09-19 13:18:00,66.5,62.0,32.18,SSW,209,0.0,3.0,85,0.00,,,0.00,weatherlink.com 1.10,2013-09-19 15:18:00,
2013-09-19 13:34:00,67.0,62.0,32.18,SSW,209,0.0,1.0,85,0.00,,,0.00,weatherlink.com 1.10,2013-09-19 15:34:00,
2013-09-19 13:50:00,68.3,63.0,32.18,SSW,209,0.0,0.0,82,0.00,,,0.00,weatherlink.com 1.10,2013-09-19 15:50:00,
2013-09-19 14:06:00,68.2,63.0,32.18,WNW,282,2.0,5.0,83,0.00,,,0.00,weatherlink.com 1.10,2013-09-19 16:06:00,
2013-09-19 14:22:00,69.2,63.0,0.00,NW,314,1.0,3.0,82,0.00,,,0.00,weatherlink.com 1.10,2013-09-19 16:22:00,
2013-09-19 14:38:00,69.8,64.0,0.00,SE,136,0.0,4.0,82,0.00,,,0.00,weatherlink.com 1.10,2013-09-19 16:38:00,
2013-09-19 14:54:00,71.4,65.0,0.00,ENE,67,2.0,7.0,81,0.00,,,0.00,weatherlink.com 1.10,2013-09-19 16:54:00,
2013-09-19 15:10:00,72.2,65.0,0.00,ESE,113,2.0,4.0,78,0.00,,,0.00,weatherlink.com 1.10,2013-09-19 17:10:00,
2013-09-19 15:26:00,72.9,65.0,0.00,SE,137,1.0,4.0,77,0.00,,,0.00,weatherlink.com 1.10,2013-09-19 17:26:00,
2013-09-19 15:42:00,74.4,67.0,0.00,South,190,0.0,6.0,77,0.00,,,0.00,weatherlink.com 1.10,2013-09-19 17:42:00,
2013-09-19 15:58:00,76.0,67.0,0.00,SE,125,4.0,5.0,74,0.00,,,0.00,weatherlink.com 1.10,2013-09-19 17:58:00,
2013-09-19 16:14:00,76.9,68.0,0.00,ESE,114,4.0,4.0,73,0.00,,,0.00,weatherlink.com 1.10,2013-09-19 18:14:00,
2013-09-19 16:30:00,77.5,67.0,0.00,SE,132,0.0,5.0,71,0.00,,,0.00,weatherlink.com 1.10,2013-09-19 18:30:00,
2013-09-19 16:46:00,78.2,67.0,0.00,SSE,164,1.0,4.0,69,0.00,,,0.00,weatherlink.com 1.10,2013-09-19 18:46:00,
2013-09-19 17:02:00,78.8,67.0,0.00,NE,46,3.0,4.0,67,0.00,,,0.00,weatherlink.com 1.10,2013-09-19 19:02:00,
2013-09-19 17:19:00,78.1,68.0,0.00,SE,126,4.0,5.0,72,0.00,,,0.00,weatherlink.com 1.10,2013-09-19 19:19:00,
2013-09-19 17:35:00,79.1,68.0,0.00,WSW,248,3.0,4.0,70,0.00,,,0.00,weatherlink.com 1.10,2013-09-19 19:35:00,
2013-09-19 17:51:00,79.4,68.0,32.15,SSE,161,2.0,6.0,68,0.00,,,0.00,weatherlink.com 1.10,2013-09-19 19:51:00,
2013-09-19 18:07:00,78.5,67.0,32.15,South,186,0.0,4.0,69,0.00,,,0.00,weatherlink.com 1.10,2013-09-19 20:07:00,
2013-09-19 18:23:00,77.8,67.0,32.15,ENE,57,2.0,5.0,70,0.00,,,0.00,weatherlink.com 1.10,2013-09-19 20:23:00,
2013-09-19 18:39:00,77.8,68.0,32.15,East,101,3.0,5.0,72,0.00,,,0.00,weatherlink.com 1.10,2013-09-19 20:39:00,
2013-09-19 18:55:00,76.8,67.0,32.15,East,80,1.0,5.0,73,0.00,,,0.00,weatherlink.com 1.10,2013-09-19 20:55:00,
2013-09-19 19:11:00,75.2,67.0,32.15,ENE,78,3.0,7.0,77,0.00,,,0.00,weatherlink.com 1.10,2013-09-19 21:11:00,
2013-09-19 19:27:00,74.2,68.0,32.15,ENE,65,0.0,4.0,81,0.01,,,0.01,weatherlink.com 1.10,2013-09-19 21:27:00,
2013-09-19 19:43:00,71.3,68.0,32.15,ENE,65,2.0,4.0,90,0.06,,,0.06,weatherlink.com 1.10,2013-09-19 21:43:00,
2013-09-19 19:59:00,71.1,69.0,32.15,ENE,65,0.0,1.0,92,0.06,,,0.06,weatherlink.com 1.10,2013-09-19 21:59:00,
2013-09-19 20:15:00,71.7,69.0,32.15,ENE,65,0.0,0.0,92,0.06,,,0.06,weatherlink.com 1.10,2013-09-19 22:15:00,
2013-09-19 20:31:00,72.1,69.0,32.15,ENE,65,0.0,0.0,91,0.03,,,0.06,weatherlink.com 1.10,2013-09-19 22:31:00,
2013-09-19 20:47:00,71.9,69.0,32.15,ENE,65,0.0,0.0,92,0.00,,,0.06,weatherlink.com 1.10,2013-09-19 22:47:00,
2013-09-19 21:03:00,70.9,69.0,32.15,ENE,65,0.0,1.0,94,0.00,,,0.06,weatherlink.com 1.10,2013-09-19 23:03:00,
2013-09-19 21:19:00,70.4,69.0,32.15,ENE,65,0.0,0.0,94,0.00,,,0.06,weatherlink.com 1.10,2013-09-19 23:19:00,
2013-09-19 21:35:00,70.0,69.0,32.15,ENE,65,2.0,2.0,95,0.00,,,0.06,weatherlink.com 1.10,2013-09-19 23:35:00,
2013-09-19 21:51:00,69.0,68.0,32.15,ENE,65,0.0,0.0,96,0.00,,,0.06,weatherlink.com 1.10,2013-09-19 23:51:00,
2013-09-19 22:07:00,68.2,67.0,32.15,ENE,65,0.0,0.0,96,0.00,,,0.06,weatherlink.com 1.10,2013-09-20 00:07:00,
2013-09-19 22:23:00,67.4,67.0,32.15,ENE,65,0.0,0.0,97,0.00,,,0.06,weatherlink.com 1.10,2013-09-20 00:23:00,
2013-09-19 22:39:00,67.0,66.0,32.15,ENE,65,0.0,1.0,97,0.00,,,0.06,weatherlink.com 1.10,2013-09-20 00:39:00,
2013-09-19 22:55:00,66.8,66.0,32.15,ENE,65,0.0,0.0,98,0.00,,,0.06,weatherlink.com 1.10,2013-09-20 00:55:00,
2013-09-19 23:11:00,67.0,66.0,32.15,ENE,65,0.0,0.0,98,0.00,,,0.06,weatherlink.com 1.10,2013-09-20 01:11:00,
2013-09-19 23:27:00,66.8,66.0,32.15,ENE,65,0.0,0.0,98,0.00,,,0.06,weatherlink.com 1.10,2013-09-20 01:27:00,
2013-09-19 23:43:00,66.5,66.0,32.15,ENE,65,0.0,0.0,98,0.00,,,0.06,weatherlink.com 1.10,2013-09-20 01:43:00,
2013-09-19 23:59:00,66.7,66.0,32.15,ENE,65,0.0,0.0,99,0.00,,,0.06,weatherlink.com 1.10,2013-09-20 01:59:00,